createdAt,value
2022-12-07T00:00:55.928Z,102065.88
2022-12-07T00:03:23.348Z,102059.88
2022-12-07T00:05:50.694Z,102069.25
2022-12-07T00:08:19.396Z,102060.56
2022-12-07T00:10:46.648Z,102060.47
2022-12-07T00:13:14.455Z,102055.78
2022-12-07T00:15:42.031Z,102070.00
2022-12-07T00:18:09.325Z,102058.09
2022-12-07T00:20:36.746Z,102065.94
2022-12-07T00:23:04.108Z,102053.72
2022-12-07T00:25:32.706Z,102063.19
2022-12-07T00:27:59.996Z,102062.38
2022-12-07T00:30:27.308Z,102067.41
2022-12-07T00:32:54.665Z,102065.00
2022-12-07T00:35:21.950Z,102059.91
2022-12-07T00:37:49.314Z,102063.63
2022-12-07T00:40:16.799Z,102060.47
2022-12-07T00:42:45.544Z,102066.06
2022-12-07T00:45:12.749Z,102062.13
2022-12-07T00:47:40.078Z,102060.63
2022-12-07T00:50:08.127Z,102055.03
2022-12-07T00:52:35.413Z,102056.56
2022-12-07T00:55:02.951Z,102043.44
2022-12-07T00:57:31.491Z,102030.75
2022-12-07T01:00:00.376Z,102034.31
2022-12-07T01:02:27.898Z,102029.59
2022-12-07T01:04:55.171Z,102019.22
2022-12-07T01:07:22.541Z,102018.06
2022-12-07T01:09:49.796Z,102009.78
2022-12-07T01:12:17.216Z,102009.44
2022-12-07T01:14:44.475Z,102001.50
2022-12-07T01:17:13.209Z,102000.72
2022-12-07T01:19:40.613Z,101996.44
2022-12-07T01:22:07.914Z,102005.63
2022-12-07T01:24:35.196Z,101991.91
2022-12-07T01:27:02.566Z,101979.69
2022-12-07T01:29:29.822Z,101976.09
2022-12-07T01:31:57.118Z,101948.91
2022-12-07T01:34:25.773Z,101935.09
2022-12-07T01:36:53.046Z,101931.06
2022-12-07T01:39:20.395Z,101917.63
2022-12-07T01:41:47.817Z,101906.28
2022-12-07T01:44:19.074Z,101875.09
2022-12-07T01:46:47.379Z,101859.66
2022-12-07T01:49:21.941Z,101824.19
2022-12-07T01:51:55.676Z,101819.31
2022-12-07T01:54:23.516Z,101780.72
2022-12-07T01:56:53.026Z,101765.66
2022-12-07T01:59:23.737Z,101751.84
2022-12-07T02:01:51.314Z,101729.78
2022-12-07T02:04:19.190Z,101700.16
2022-12-07T02:06:47.746Z,101687.53
2022-12-07T02:09:16.530Z,101676.97
2022-12-07T02:11:43.885Z,101662.81
2022-12-07T02:14:11.282Z,101640.78
2022-12-07T02:16:48.134Z,101627.75
2022-12-07T02:19:57.436Z,101606.47
2022-12-07T02:22:43.423Z,101586.31
2022-12-07T02:25:24.751Z,101591.84
2022-12-07T02:27:59.923Z,101572.53
2022-12-07T02:30:33.845Z,101563.41
2022-12-07T02:33:06.217Z,101557.16
2022-12-07T02:35:40.416Z,101541.00
2022-12-07T02:38:15.527Z,101527.22
2022-12-07T02:40:48.961Z,101528.00
2022-12-07T02:43:20.520Z,101528.38
2022-12-07T02:45:52.582Z,101528.38
2022-12-07T02:48:21.584Z,101518.56
2022-12-07T02:50:51.367Z,101516.28
2022-12-07T02:53:33.152Z,101511.50
2022-12-07T02:56:04.033Z,101517.09
2022-12-07T02:58:43.266Z,101504.50
2022-12-07T03:01:22.890Z,101502.25
2022-12-07T03:04:03.448Z,101516.03
2022-12-07T03:06:35.720Z,101499.16
2022-12-07T03:09:14.528Z,101486.50
2022-12-07T03:11:47.387Z,101469.91
2022-12-07T03:14:20.282Z,101439.22
2022-12-07T03:16:53.418Z,101420.28
2022-12-07T03:19:23.989Z,101412.03
2022-12-07T03:21:56.641Z,101394.75
2022-12-07T03:24:28.832Z,101390.81
2022-12-07T03:27:03.613Z,101366.06
2022-12-07T03:29:35.246Z,101349.53
2022-12-07T03:32:07.955Z,101347.19
2022-12-07T03:34:42.440Z,101355.47
2022-12-07T03:37:18.663Z,101340.06
2022-12-07T03:39:53.560Z,101310.59
2022-12-07T03:42:20.874Z,101303.94
2022-12-07T03:44:48.767Z,101298.84
2022-12-07T03:47:27.077Z,101292.16
2022-12-07T03:50:00.417Z,101318.16
2022-12-07T03:52:34.784Z,101311.09
2022-12-07T03:55:09.875Z,101303.16
2022-12-07T03:57:39.531Z,101314.56
2022-12-07T04:00:08.979Z,101307.03
2022-12-07T04:02:44.175Z,101320.41
2022-12-07T04:05:12.317Z,101327.06
2022-12-07T04:07:39.648Z,101349.47
2022-12-07T04:10:08.233Z,101375.44
2022-12-07T04:12:35.528Z,101396.25
2022-12-07T04:15:03.441Z,101408.84
2022-12-07T04:17:30.901Z,101413.06
2022-12-07T04:19:59.708Z,101442.22
2022-12-07T04:22:27.198Z,101466.59
2022-12-07T04:24:54.519Z,101478.03
2022-12-07T04:27:21.882Z,101500.47
2022-12-07T04:29:49.201Z,101528.03
2022-12-07T04:32:16.515Z,101536.69
2022-12-07T04:34:43.843Z,101559.94
2022-12-07T04:37:12.517Z,101569.31
2022-12-07T04:39:39.899Z,101575.25
2022-12-07T04:42:07.183Z,101582.31
2022-12-07T04:44:34.623Z,101591.31
2022-12-07T04:47:02.011Z,101598.44
2022-12-07T04:49:29.400Z,101610.66
2022-12-07T04:51:56.702Z,101616.22
2022-12-07T04:54:25.434Z,101626.41
2022-12-07T04:56:52.684Z,101624.09
2022-12-07T04:59:19.918Z,101626.84
2022-12-07T05:01:47.280Z,101631.94
2022-12-07T05:04:14.631Z,101634.63
2022-12-07T05:06:41.893Z,101631.94
2022-12-07T05:09:09.415Z,101635.06
2022-12-07T05:11:37.996Z,101621.63
2022-12-07T05:14:07.684Z,101624.00
2022-12-07T05:16:35.205Z,101634.91
2022-12-07T05:19:02.813Z,101629.28
2022-12-07T05:21:30.180Z,101624.84
2022-12-07T05:23:57.624Z,101629.09
2022-12-07T05:26:24.972Z,101630.66
2022-12-07T05:28:54.919Z,101632.16
2022-12-07T05:31:23.289Z,101633.38
2022-12-07T05:33:50.617Z,101642.06
2022-12-07T05:36:17.905Z,101649.56
2022-12-07T05:38:45.234Z,101642.44
2022-12-07T05:41:15.528Z,101638.09
2022-12-07T05:43:42.889Z,101627.44
2022-12-07T05:46:11.600Z,101637.66
2022-12-07T05:48:38.885Z,101632.53
2022-12-07T05:51:06.111Z,101644.75
2022-12-07T05:53:33.380Z,101624.63
2022-12-07T05:56:00.619Z,101634.06
2022-12-07T05:58:27.934Z,101632.88
2022-12-07T06:00:55.379Z,101625.38
2022-12-07T06:03:24.235Z,101638.00
2022-12-07T06:05:53.441Z,101640.78
2022-12-07T06:08:20.956Z,101640.16
2022-12-07T06:10:48.995Z,101660.22
2022-12-07T06:13:16.339Z,101649.63
2022-12-07T06:15:43.703Z,101665.81
2022-12-07T06:18:10.996Z,101667.84
2022-12-07T06:20:39.569Z,101668.69
2022-12-07T06:23:06.870Z,101655.75
2022-12-07T06:25:34.151Z,101664.78
2022-12-07T06:28:01.389Z,101651.38
2022-12-07T06:30:28.642Z,101657.72
2022-12-07T06:32:56.129Z,101651.44
2022-12-07T06:35:23.358Z,101627.41
2022-12-07T06:37:52.016Z,101634.16
2022-12-07T06:40:19.364Z,101627.03
2022-12-07T06:42:46.668Z,101611.34
2022-12-07T06:45:14.104Z,101609.69
2022-12-07T06:47:42.460Z,101601.38
2022-12-07T06:50:11.381Z,101601.75
2022-12-07T06:52:38.671Z,101590.69
2022-12-07T06:55:08.260Z,101585.13
2022-12-07T06:57:35.531Z,101584.38
2022-12-07T07:00:04.895Z,101577.19
2022-12-07T07:02:32.631Z,101574.84
2022-12-07T07:04:59.928Z,101585.94
2022-12-07T07:07:27.278Z,101577.78
2022-12-07T07:09:54.542Z,101585.91
2022-12-07T07:12:23.374Z,101593.34
2022-12-07T07:14:50.604Z,101595.28
2022-12-07T07:17:17.871Z,101601.66
2022-12-07T07:19:45.138Z,101602.38
2022-12-07T07:22:12.480Z,101604.72
2022-12-07T07:24:39.757Z,101610.25
2022-12-07T07:27:07.162Z,101615.41
2022-12-07T07:29:35.935Z,101618.13
2022-12-07T07:32:06.654Z,101618.81
2022-12-07T07:34:34.608Z,101626.66
2022-12-07T07:37:01.947Z,101615.22
2022-12-07T07:39:29.262Z,101621.09
2022-12-07T07:41:56.523Z,101629.34
2022-12-07T07:44:31.725Z,101620.28
2022-12-07T07:47:04.310Z,101626.97
2022-12-07T07:49:31.654Z,101625.03
2022-12-07T07:51:59.072Z,101622.72
2022-12-07T07:54:26.717Z,101632.59
2022-12-07T07:56:54.587Z,101632.66
2022-12-07T07:59:21.769Z,101633.53
2022-12-07T08:01:49.069Z,101638.59
2022-12-07T08:04:17.884Z,101643.78
2022-12-07T08:06:45.191Z,101639.47
2022-12-07T08:09:13.284Z,101624.06
2022-12-07T08:11:40.655Z,101620.44
2022-12-07T08:14:07.991Z,101618.91
2022-12-07T08:16:35.397Z,101620.50
2022-12-07T08:19:02.670Z,101604.03
2022-12-07T08:21:31.362Z,101592.22
2022-12-07T08:23:58.671Z,101604.84
2022-12-07T08:26:26.056Z,101591.44
2022-12-07T08:28:53.968Z,101585.16
2022-12-07T08:31:21.448Z,101569.50
2022-12-07T08:33:49.131Z,101568.66
2022-12-07T08:36:17.720Z,101556.50
2022-12-07T08:39:07.847Z,101555.41
2022-12-07T08:41:34.198Z,101538.16
2022-12-07T08:44:01.529Z,101524.81
2022-12-07T08:46:33.625Z,101512.19
2022-12-07T08:49:05.480Z,101509.84
2022-12-07T08:51:33.278Z,101513.03
2022-12-07T08:54:05.002Z,101513.53
2022-12-07T08:56:32.486Z,101508.38
2022-12-07T08:58:59.865Z,101503.78
2022-12-07T09:01:27.302Z,101495.13
2022-12-07T09:03:54.674Z,101480.97
2022-12-07T09:06:22.300Z,101473.06
2022-12-07T09:08:56.175Z,101432.19
2022-12-07T09:11:28.638Z,101412.44
2022-12-07T09:13:56.773Z,101394.38
2022-12-07T09:16:24.215Z,101380.63
2022-12-07T09:18:51.666Z,101359.69
2022-12-07T09:21:18.990Z,101330.19
2022-12-07T09:23:46.297Z,101315.97
2022-12-07T09:26:13.623Z,101297.53
2022-12-07T09:28:42.333Z,101284.16
2022-12-07T09:31:26.041Z,101263.66
2022-12-07T09:33:57.206Z,101241.63
2022-12-07T09:36:25.064Z,101231.41
2022-12-07T09:38:52.617Z,101214.47
2022-12-07T09:41:20.968Z,101207.06
2022-12-07T09:43:49.986Z,101193.66
2022-12-07T09:46:20.226Z,101183.09
2022-12-07T09:48:48.705Z,101168.50
2022-12-07T09:51:23.165Z,101142.91
2022-12-07T09:53:52.583Z,101140.94
2022-12-07T09:56:21.054Z,101113.34
2022-12-07T09:58:52.037Z,101118.06
2022-12-07T10:01:22.005Z,101093.63
2022-12-07T10:03:52.152Z,101072.00
2022-12-07T10:06:19.973Z,101067.69
2022-12-07T10:08:47.459Z,101060.22
2022-12-07T10:11:14.972Z,101046.03
2022-12-07T10:13:44.449Z,101039.34
2022-12-07T10:16:36.580Z,101041.72
2022-12-07T10:19:20.623Z,101035.41
2022-12-07T10:22:02.022Z,101033.81
2022-12-07T10:24:29.439Z,101036.56
2022-12-07T10:26:56.757Z,101031.47
2022-12-07T10:29:29.184Z,101034.63
2022-12-07T10:32:00.509Z,101024.75
2022-12-07T10:34:29.837Z,101036.19
2022-12-07T10:37:15.951Z,101033.44
2022-12-07T10:39:45.497Z,101031.47
2022-12-07T10:42:20.975Z,101034.22
2022-12-07T10:44:49.275Z,101029.47
2022-12-07T10:47:30.763Z,101025.13
2022-12-07T10:50:38.277Z,101025.94
2022-12-07T10:53:21.147Z,101019.63
2022-12-07T10:56:08.783Z,100994.41
2022-12-07T10:58:53.351Z,101008.19
2022-12-07T11:01:26.908Z,101012.41
2022-12-07T11:04:14.871Z,101008.84
2022-12-07T11:06:52.998Z,101006.13
2022-12-07T11:10:08.040Z,101010.50
2022-12-07T11:12:48.218Z,101011.72
2022-12-07T11:15:23.166Z,101099.28
2022-12-07T11:17:59.833Z,101081.91
2022-12-07T11:20:42.604Z,101089.81
2022-12-07T11:23:19.461Z,101068.50
2022-12-07T11:25:56.409Z,101048.03
2022-12-07T11:28:48.089Z,101043.66
2022-12-07T11:31:29.031Z,101034.22
2022-12-07T11:34:01.264Z,101034.59
2022-12-07T11:36:38.538Z,101034.56
2022-12-07T11:39:16.876Z,101028.19
2022-12-07T11:41:47.526Z,101025.06
2022-12-07T11:44:27.662Z,101024.28
2022-12-07T11:47:00.983Z,101035.34
2022-12-07T11:49:41.177Z,101036.13
2022-12-07T11:52:19.391Z,101026.25
2022-12-07T11:54:48.634Z,101023.47
2022-12-07T11:57:21.789Z,101021.50
2022-12-07T11:59:53.363Z,101008.34
2022-12-07T12:02:27.218Z,101043.47
2022-12-07T12:05:00.641Z,101181.59
2022-12-07T12:10:21.923Z,101156.28
2022-12-07T12:16:19.771Z,101148.00
2022-12-07T12:19:04.348Z,101067.25
2022-12-07T12:21:32.273Z,101078.38
2022-12-07T12:24:05.051Z,101068.97
2022-12-07T12:26:36.103Z,101068.84
2022-12-07T12:29:06.237Z,101100.53
2022-12-07T12:31:37.969Z,101098.88
2022-12-07T12:34:20.941Z,101104.16
2022-12-07T12:36:48.660Z,101102.28
2022-12-07T12:39:19.443Z,101095.94
2022-12-07T12:41:58.011Z,101096.81
2022-12-07T12:44:41.617Z,101094.47
2022-12-07T12:47:42.069Z,101107.13
2022-12-07T12:50:17.835Z,101113.81
2022-12-07T12:53:03.498Z,101113.28
2022-12-07T12:56:10.354Z,101088.81
2022-12-07T12:58:39.861Z,101089.25
2022-12-07T13:01:41.036Z,101089.72
2022-12-07T13:04:45.871Z,101081.91
2022-12-07T13:07:34.389Z,101089.75
2022-12-07T13:10:03.602Z,101086.22
2022-12-07T13:12:32.925Z,101085.84
2022-12-07T13:15:00.774Z,101094.91
2022-12-07T13:17:57.706Z,101092.94
2022-12-07T13:20:54.093Z,101103.19
2022-12-07T13:23:25.017Z,101093.34
2022-12-07T13:25:56.548Z,101101.25
2022-12-07T13:28:37.748Z,101101.63
2022-12-07T13:31:15.533Z,101101.25
2022-12-07T13:33:45.093Z,101111.91
2022-12-07T13:36:20.619Z,101109.91
2022-12-07T13:38:57.324Z,101112.69
2022-12-07T13:41:26.259Z,101114.28
2022-12-07T13:44:03.273Z,101105.19
2022-12-07T13:46:50.871Z,101115.03
2022-12-07T13:49:24.751Z,101110.31
2022-12-07T13:51:53.497Z,101109.13
2022-12-07T13:54:21.533Z,101104.00
2022-12-07T13:56:51.781Z,101101.25
2022-12-07T13:59:23.629Z,101100.84
2022-12-07T14:01:52.268Z,101096.91
2022-12-07T14:04:35.703Z,101093.75
2022-12-07T14:07:21.619Z,101096.91
2022-12-07T14:09:57.518Z,101091.78
2022-12-07T14:12:26.139Z,101073.28
2022-12-07T14:14:56.355Z,101085.88
2022-12-07T14:17:25.689Z,101074.81
2022-12-07T14:19:55.463Z,101063.78
2022-12-07T14:22:32.242Z,101066.16
2022-12-07T14:25:16.747Z,101055.09
2022-12-07T14:27:53.159Z,101040.16
2022-12-07T14:30:22.475Z,101030.66
2022-12-07T14:32:53.424Z,101030.69
2022-12-07T14:35:21.091Z,101044.06
2022-12-07T14:37:49.821Z,101029.88
2022-12-07T14:40:19.214Z,101016.84
2022-12-07T14:42:49.378Z,100997.56
2022-12-07T14:45:18.558Z,100974.69
2022-12-07T14:50:38.651Z,100943.19
2022-12-07T14:53:28.468Z,100926.63
2022-12-07T14:55:55.920Z,100925.03
2022-12-07T14:58:23.207Z,100911.66
2022-12-07T15:00:50.568Z,100898.28
2022-12-07T15:03:19.278Z,100896.34
2022-12-07T15:05:46.775Z,100891.97
2022-12-07T15:08:14.358Z,100889.22
2022-12-07T15:10:41.980Z,100876.25
2022-12-07T15:13:09.652Z,100870.72
2022-12-07T15:15:37.005Z,100867.56
2022-12-07T15:18:04.706Z,100860.09
2022-12-07T15:20:34.097Z,100849.47
2022-12-07T15:23:01.418Z,100843.16
2022-12-07T15:25:28.727Z,100834.50
2022-12-07T15:27:55.958Z,100808.53
2022-12-07T15:30:23.483Z,100803.03
2022-12-07T15:32:51.172Z,100807.75
2022-12-07T15:35:18.784Z,100797.53
2022-12-07T15:37:47.708Z,100798.69
2022-12-07T15:40:15.425Z,100783.34
2022-12-07T15:42:42.866Z,100769.16
2022-12-07T15:45:10.796Z,100764.47
2022-12-07T15:48:18.386Z,100758.56
2022-12-07T15:50:27.996Z,100750.28
2022-12-07T15:52:56.739Z,100748.72
2022-12-07T15:55:24.024Z,100733.78
2022-12-07T15:57:51.319Z,100730.63
2022-12-07T16:00:20.070Z,100730.59
2022-12-07T16:02:47.463Z,100804.91
2022-12-07T16:05:15.129Z,100795.06
2022-12-07T16:07:42.593Z,100793.50
2022-12-07T16:10:11.907Z,100780.91
2022-12-07T16:12:39.382Z,100780.88
2022-12-07T16:15:08.046Z,100772.22
2022-12-07T16:17:35.365Z,100762.00
2022-12-07T16:20:03.897Z,100751.00
2022-12-07T16:22:31.231Z,100593.03
2022-12-07T16:24:58.510Z,100581.25
2022-12-07T16:27:27.219Z,100587.16
2022-12-07T16:29:54.637Z,100586.75
2022-12-07T16:32:21.887Z,100584.00
2022-12-07T16:34:49.239Z,100577.69
2022-12-07T16:37:16.511Z,100581.25
2022-12-07T16:39:43.840Z,100579.66
2022-12-07T16:42:11.123Z,100567.47
2022-12-07T16:44:39.810Z,100570.22
2022-12-07T16:47:07.301Z,100566.69
2022-12-07T16:49:34.715Z,100566.28
2022-12-07T16:52:19.167Z,100553.28
2022-12-07T16:54:48.220Z,100568.63
2022-12-07T16:57:21.929Z,100557.22
2022-12-07T16:59:52.891Z,100554.47
2022-12-07T17:02:20.551Z,100555.28
2022-12-07T17:04:47.923Z,100561.56
2022-12-07T17:07:15.179Z,100541.53
2022-12-07T17:09:42.598Z,100549.78
2022-12-07T17:12:10.039Z,100558.44
2022-12-07T17:14:37.408Z,100555.69
2022-12-07T17:17:06.104Z,100556.09
2022-12-07T17:19:33.463Z,100551.38
2022-12-07T17:22:00.781Z,100552.53
2022-12-07T17:24:28.185Z,100552.53
2022-12-07T17:26:55.436Z,100565.53
2022-12-07T17:29:22.899Z,100566.28
2022-12-07T17:31:51.975Z,100574.94
2022-12-07T17:34:20.901Z,100573.78
2022-12-07T17:36:48.268Z,100580.44
2022-12-07T17:39:17.597Z,100575.72
2022-12-07T17:41:45.113Z,100584.78
2022-12-07T17:44:14.699Z,100589.88
2022-12-07T17:46:42.521Z,100595.38
2022-12-07T17:49:10.244Z,100594.59
2022-12-07T17:51:38.979Z,100597.72
2022-12-07T17:54:06.366Z,100610.28
2022-12-07T17:56:33.661Z,100613.44
2022-12-07T17:59:01.056Z,100617.38
2022-12-07T18:01:34.262Z,100619.72
2022-12-07T18:04:02.084Z,100629.94
2022-12-07T18:06:29.364Z,100651.94
2022-12-07T18:08:59.108Z,100659.03
2022-12-07T18:11:27.065Z,100661.00
2022-12-07T18:13:54.474Z,100674.34
2022-12-07T18:16:24.396Z,100678.69
2022-12-07T18:18:52.903Z,100680.66
2022-12-07T18:21:25.254Z,100688.13
2022-12-07T18:23:54.976Z,100703.06
2022-12-07T18:26:25.968Z,100714.06
2022-12-07T18:28:53.668Z,100719.56
2022-12-07T18:31:21.247Z,100725.88
2022-12-07T18:33:48.687Z,100732.19
2022-12-07T18:36:18.473Z,100752.22
2022-12-07T18:38:45.823Z,100760.47
2022-12-07T18:41:14.546Z,100771.88
2022-12-07T18:43:43.250Z,100805.28
2022-12-07T18:46:11.416Z,100821.81
2022-12-07T18:48:38.944Z,100824.97
2022-12-07T18:51:07.397Z,100699.94
2022-12-07T18:53:35.535Z,100705.44
2022-12-07T18:56:04.939Z,100708.22
2022-12-07T18:58:33.011Z,100708.56
2022-12-07T19:01:01.960Z,100723.09
2022-12-07T19:03:33.222Z,100727.06
2022-12-07T19:06:06.248Z,100742.75
2022-12-07T19:08:33.613Z,100741.22
2022-12-07T19:11:00.892Z,100749.84
2022-12-07T19:13:28.334Z,100762.81
2022-12-07T19:15:55.607Z,100770.28
2022-12-07T19:18:24.558Z,100782.47
2022-12-07T19:20:51.882Z,100787.16
2022-12-07T19:23:19.268Z,100794.22
2022-12-07T19:25:46.526Z,100801.72
2022-12-07T19:28:13.903Z,100803.28
2022-12-07T19:30:41.207Z,100818.59
2022-12-07T19:33:08.552Z,100834.72
2022-12-07T19:35:37.231Z,100829.22
2022-12-07T19:38:04.442Z,100842.19
2022-12-07T19:40:31.718Z,100842.97
2022-12-07T19:42:59.065Z,100853.94
2022-12-07T19:45:26.420Z,100851.59
2022-12-07T19:47:53.784Z,100849.22
2022-12-07T19:50:21.199Z,100852.75
2022-12-07T19:52:51.052Z,100864.56
2022-12-07T19:55:18.649Z,100866.88
2022-12-07T19:57:46.245Z,100861.00
2022-12-07T20:00:14.567Z,100872.81
2022-12-07T20:02:42.005Z,100867.31
2022-12-07T20:05:10.302Z,100864.53
2022-12-07T20:07:38.074Z,100862.97
2022-12-07T20:10:08.688Z,100863.34
2022-12-07T20:12:36.839Z,100865.69
2022-12-07T20:15:05.067Z,100855.09
2022-12-07T20:17:33.556Z,100852.34
2022-12-07T20:20:00.901Z,100855.09
2022-12-07T20:22:28.232Z,100855.91
2022-12-07T20:24:55.519Z,100855.53
2022-12-07T20:27:24.202Z,100863.75
2022-12-07T20:29:51.488Z,100862.59
2022-12-07T20:32:18.939Z,100867.28
2022-12-07T20:34:46.455Z,100871.22
2022-12-07T20:37:13.961Z,100860.22
2022-12-07T20:39:41.304Z,100861.41
2022-12-07T20:42:09.052Z,100873.97
2022-12-07T20:44:38.073Z,100868.09
2022-12-07T20:47:06.622Z,100874.38
2022-12-07T20:49:36.549Z,100884.66
2022-12-07T20:52:04.281Z,100874.38
2022-12-07T20:54:31.735Z,100868.88
2022-12-07T20:56:59.096Z,100875.97
2022-12-07T20:59:26.375Z,100867.69
2022-12-07T21:01:55.177Z,100872.81
2022-12-07T21:04:22.602Z,100871.63
2022-12-07T21:06:49.828Z,100872.06
2022-12-07T21:09:16.998Z,100872.81
2022-12-07T21:11:44.247Z,100876.38
2022-12-07T21:14:11.456Z,100874.38
2022-12-07T21:16:38.677Z,100879.13
2022-12-07T21:19:07.394Z,100888.19
2022-12-07T21:21:34.772Z,100883.06
2022-12-07T21:24:03.958Z,100888.56
2022-12-07T21:26:32.704Z,100893.31
2022-12-07T21:29:00.193Z,100888.22
2022-12-07T21:31:27.543Z,100891.75
2022-12-07T21:33:55.018Z,100884.31
2022-12-07T21:36:25.364Z,100881.56
2022-12-07T21:38:52.915Z,100888.22
2022-12-07T21:41:21.947Z,100880.00
2022-12-07T21:43:50.156Z,100877.25
2022-12-07T21:46:18.959Z,100878.03
2022-12-07T21:48:50.112Z,100881.94
2022-12-07T21:51:18.483Z,100874.50
2022-12-07T21:53:47.940Z,100871.34
2022-12-07T21:56:17.545Z,100871.75
2022-12-07T21:58:45.379Z,100869.78
2022-12-07T22:01:17.361Z,100859.19
2022-12-07T22:03:46.094Z,100858.41
2022-12-07T22:06:14.330Z,100856.81
2022-12-07T22:08:42.587Z,100844.66
2022-12-07T22:11:12.282Z,100843.81
2022-12-07T22:13:40.597Z,100839.09
2022-12-07T22:16:07.901Z,100837.53
2022-12-07T22:18:35.264Z,100832.03
2022-12-07T22:21:02.468Z,100825.75
2022-12-07T22:23:31.805Z,100824.97
2022-12-07T22:25:59.169Z,100810.81
2022-12-07T22:28:27.837Z,100811.59
2022-12-07T22:30:55.110Z,100803.34
2022-12-07T22:33:22.435Z,100792.72
2022-12-07T22:35:52.757Z,100791.91
2022-12-07T22:38:20.010Z,100796.25
2022-12-07T22:40:47.339Z,100773.03
2022-12-07T22:43:14.770Z,100772.25
2022-12-07T22:45:43.420Z,100772.63
2022-12-07T22:48:10.794Z,100766.75
2022-12-07T22:50:38.065Z,100767.53
2022-12-07T22:53:05.356Z,100761.63
2022-12-07T22:55:32.644Z,100756.94
2022-12-07T22:58:00.033Z,100745.53
2022-12-07T23:00:27.308Z,100749.84
2022-12-07T23:02:56.095Z,100731.78
2022-12-07T23:05:23.361Z,100725.06
2022-12-07T23:07:51.082Z,100722.72
2022-12-07T23:10:18.564Z,100716.47
2022-12-07T23:12:45.881Z,100708.59
2022-12-07T23:15:13.175Z,100703.88
2022-12-07T23:17:40.535Z,100694.81
2022-12-07T23:20:10.111Z,100685.41
2022-12-07T23:22:37.388Z,100680.31
2022-12-07T23:25:05.848Z,100681.06
2022-12-07T23:27:34.085Z,100669.66
2022-12-07T23:30:01.515Z,100657.50
2022-12-07T23:32:28.854Z,100646.47
2022-12-07T23:34:56.097Z,100633.91
2022-12-07T23:37:24.759Z,100631.94
2022-12-07T23:39:52.088Z,100609.53
2022-12-07T23:42:19.447Z,100592.25
2022-12-07T23:44:46.721Z,100581.25
2022-12-07T23:47:14.144Z,100581.25
2022-12-07T23:49:41.472Z,100574.16
2022-12-07T23:52:08.766Z,100562.00
2022-12-07T23:54:37.405Z,100560.81
2022-12-07T23:57:04.758Z,100555.69
2022-12-07T23:59:32.035Z,100549.78
